createdAt,value
2018-01-23T00:00:42.129Z,10.55
2018-01-23T00:01:42.600Z,10.56
2018-01-23T00:02:43.071Z,10.53
2018-01-23T00:04:44.010Z,10.52
2018-01-23T00:05:44.478Z,10.52
2018-01-23T00:06:44.946Z,10.51
2018-01-23T00:07:45.411Z,10.50
2018-01-23T00:08:45.886Z,10.50
2018-01-23T00:09:46.362Z,10.52
2018-01-23T00:11:47.298Z,10.51
2018-01-23T00:12:47.806Z,10.52
2018-01-23T00:13:48.236Z,10.49
2018-01-23T00:14:48.707Z,10.50
2018-01-23T00:15:49.173Z,10.50
2018-01-23T00:16:49.644Z,10.52
2018-01-23T00:17:50.116Z,10.52
2018-01-23T00:18:50.577Z,10.52
2018-01-23T00:20:51.523Z,10.51
2018-01-23T00:21:51.992Z,10.49
2018-01-23T00:22:52.460Z,10.49
2018-01-23T00:23:52.930Z,10.48
2018-01-23T00:24:53.399Z,10.48
2018-01-23T00:25:54.210Z,10.47
2018-01-23T00:26:54.338Z,10.47
2018-01-23T00:27:54.808Z,10.48
2018-01-23T00:28:55.280Z,10.48
2018-01-23T00:29:55.746Z,10.48
2018-01-23T00:30:56.218Z,10.48
2018-01-23T00:31:56.686Z,10.46
2018-01-23T00:32:57.207Z,10.49
2018-01-23T00:33:57.628Z,10.48
2018-01-23T00:35:58.564Z,10.48
2018-01-23T00:36:59.034Z,10.48
2018-01-23T00:37:59.504Z,10.47
2018-01-23T00:38:59.974Z,10.45
2018-01-23T00:40:00.442Z,10.45
2018-01-23T00:41:01.112Z,10.44
2018-01-23T00:42:01.383Z,10.44
2018-01-23T00:43:01.854Z,10.44
2018-01-23T00:44:02.322Z,10.46
2018-01-23T00:45:02.792Z,10.45
2018-01-23T00:46:03.261Z,10.45
2018-01-23T00:47:03.730Z,10.44
2018-01-23T00:48:04.199Z,10.44
2018-01-23T00:49:04.668Z,10.42
2018-01-23T00:50:05.145Z,10.42
2018-01-23T00:52:06.074Z,10.42
2018-01-23T00:53:06.552Z,10.42
2018-01-23T00:54:07.019Z,10.43
2018-01-23T00:55:07.488Z,10.42
2018-01-23T00:56:07.956Z,10.43
2018-01-23T00:57:08.425Z,10.44
2018-01-23T00:59:09.363Z,10.43
2018-01-23T01:00:09.833Z,10.41
2018-01-23T01:01:10.303Z,10.40
2018-01-23T01:03:11.236Z,10.38
2018-01-23T01:04:11.711Z,10.37
2018-01-23T01:06:12.650Z,10.39
2018-01-23T01:07:13.120Z,10.39
2018-01-23T01:08:25.980Z,10.38
2018-01-23T01:09:14.059Z,10.38
2018-01-23T01:10:14.530Z,10.38
2018-01-23T01:11:15.000Z,10.38
2018-01-23T01:12:15.468Z,10.38
2018-01-23T01:13:15.937Z,10.40
2018-01-23T01:14:16.402Z,10.37
2018-01-23T01:15:16.875Z,10.40
2018-01-23T01:17:17.815Z,10.39
2018-01-23T01:18:18.285Z,10.39
2018-01-23T01:19:18.753Z,10.39
2018-01-23T01:21:19.693Z,10.37
2018-01-23T01:22:20.162Z,10.36
2018-01-23T01:23:20.631Z,10.37
2018-01-23T01:24:21.101Z,10.38
2018-01-23T01:25:21.566Z,10.37
2018-01-23T01:26:22.041Z,10.35
2018-01-23T01:27:22.508Z,10.36
2018-01-23T01:28:22.978Z,10.35
2018-01-23T01:29:23.646Z,10.34
2018-01-23T01:30:23.917Z,10.33
2018-01-23T01:31:24.386Z,10.33
2018-01-23T01:32:24.860Z,10.32
2018-01-23T01:33:25.328Z,10.35
2018-01-23T01:35:26.266Z,10.35
2018-01-23T01:36:26.730Z,10.33
2018-01-23T01:37:27.205Z,10.32
2018-01-23T01:38:27.674Z,10.30
2018-01-23T01:39:28.141Z,10.29
2018-01-23T01:40:28.611Z,10.29
2018-01-23T01:41:29.080Z,10.29
2018-01-23T01:42:29.550Z,10.29
2018-01-23T01:43:41.808Z,10.28
2018-01-23T01:44:30.488Z,10.26
2018-01-23T01:45:30.958Z,10.28
2018-01-23T01:46:31.427Z,10.28
2018-01-23T01:47:31.890Z,10.27
2018-01-23T01:48:32.367Z,10.26
2018-01-23T01:49:32.837Z,10.26
2018-01-23T01:50:33.312Z,10.25
2018-01-23T01:51:33.775Z,10.25
2018-01-23T01:52:34.245Z,10.28
2018-01-23T01:54:35.185Z,10.28
2018-01-23T01:55:35.653Z,10.29
2018-01-23T01:56:36.123Z,10.30
2018-01-23T01:58:37.059Z,10.26
2018-01-23T01:59:48.805Z,10.26
2018-01-23T02:00:38.000Z,10.27
2018-01-23T02:01:38.469Z,10.25
2018-01-23T02:02:38.937Z,10.25
2018-01-23T02:03:39.406Z,10.26
2018-01-23T02:04:39.875Z,10.22
2018-01-23T02:05:40.345Z,10.22
2018-01-23T02:06:40.814Z,10.22
2018-01-23T02:07:41.283Z,10.23
2018-01-23T02:08:41.753Z,10.22
2018-01-23T02:09:42.215Z,10.24
2018-01-23T02:10:42.691Z,10.24
2018-01-23T02:11:43.159Z,10.23
2018-01-23T02:12:43.630Z,10.21
2018-01-23T02:13:44.098Z,10.21
2018-01-23T02:14:44.569Z,10.20
2018-01-23T02:15:45.037Z,10.21
2018-01-23T02:16:45.508Z,10.22
2018-01-23T02:17:45.976Z,10.23
2018-01-23T02:18:46.445Z,10.24
2018-01-23T02:19:46.914Z,10.22
2018-01-23T02:20:47.377Z,10.23
2018-01-23T02:21:47.856Z,10.23
2018-01-23T02:22:48.322Z,10.22
2018-01-23T02:23:48.793Z,10.21
2018-01-23T02:24:49.262Z,10.21
2018-01-23T02:25:49.729Z,10.20
2018-01-23T02:26:50.201Z,10.22
2018-01-23T02:27:50.663Z,10.22
2018-01-23T02:28:51.138Z,10.21
2018-01-23T02:30:52.077Z,10.23
2018-01-23T02:31:52.540Z,10.22
2018-01-23T02:32:53.014Z,10.21
2018-01-23T02:33:53.484Z,10.22
2018-01-23T02:34:54.157Z,10.22
2018-01-23T02:36:54.891Z,10.21
2018-01-23T02:37:55.361Z,10.23
2018-01-23T02:38:56.168Z,10.22
2018-01-23T02:39:56.301Z,10.23
2018-01-23T02:40:56.769Z,10.22
2018-01-23T02:41:57.240Z,10.22
2018-01-23T02:42:57.704Z,10.21
2018-01-23T02:44:58.650Z,10.20
2018-01-23T02:45:59.114Z,10.21
2018-01-23T02:46:59.587Z,10.19
2018-01-23T02:48:00.053Z,10.19
2018-01-23T02:49:00.522Z,10.17
2018-01-23T02:50:00.988Z,10.16
2018-01-23T02:51:01.462Z,10.16
2018-01-23T02:52:01.933Z,10.16
2018-01-23T02:53:02.400Z,10.16
2018-01-23T02:54:02.869Z,10.15
2018-01-23T02:55:03.345Z,10.16
2018-01-23T02:56:03.807Z,10.18
2018-01-23T02:57:04.277Z,10.17
2018-01-23T02:58:04.749Z,10.20
2018-01-23T02:59:05.215Z,10.19
2018-01-23T03:01:06.148Z,10.17
2018-01-23T03:02:06.623Z,10.16
2018-01-23T03:03:07.094Z,10.16
2018-01-23T03:04:07.561Z,10.16
2018-01-23T03:05:08.029Z,10.17
2018-01-23T03:06:08.501Z,10.14
2018-01-23T03:07:09.171Z,10.15
2018-01-23T03:08:09.438Z,10.19
2018-01-23T03:10:10.378Z,10.19
2018-01-23T03:11:10.842Z,10.18
2018-01-23T03:12:11.314Z,10.19
2018-01-23T03:13:11.783Z,10.18
2018-01-23T03:14:12.252Z,10.18
2018-01-23T03:15:12.723Z,10.19
2018-01-23T03:16:13.191Z,10.17
2018-01-23T03:17:13.660Z,10.16
2018-01-23T03:18:14.131Z,10.16
2018-01-23T03:19:14.600Z,10.15
2018-01-23T03:20:15.068Z,10.15
2018-01-23T03:21:15.536Z,10.14
2018-01-23T03:22:16.006Z,10.13
2018-01-23T03:23:16.476Z,10.12
2018-01-23T03:24:17.281Z,10.12
2018-01-23T03:25:17.414Z,10.11
2018-01-23T03:26:17.885Z,10.12
2018-01-23T03:27:18.353Z,10.12
2018-01-23T03:28:18.817Z,10.11
2018-01-23T03:29:19.291Z,10.12
2018-01-23T03:30:19.761Z,10.13
2018-01-23T03:31:20.231Z,10.12
2018-01-23T03:32:20.702Z,10.12
2018-01-23T03:33:21.171Z,10.13
2018-01-23T03:34:21.636Z,10.12
2018-01-23T03:35:22.103Z,10.13
2018-01-23T03:36:22.574Z,10.13
2018-01-23T03:37:23.045Z,10.12
2018-01-23T03:38:23.512Z,10.12
2018-01-23T03:39:23.977Z,10.12
2018-01-23T03:40:24.450Z,10.12
2018-01-23T03:41:24.968Z,10.13
2018-01-23T03:42:25.390Z,10.11
2018-01-23T03:43:25.858Z,10.11
2018-01-23T03:44:26.330Z,10.11
2018-01-23T03:45:26.793Z,10.09
2018-01-23T03:46:27.268Z,10.09
2018-01-23T03:47:27.736Z,10.07
2018-01-23T03:48:28.203Z,10.08
2018-01-23T03:49:28.677Z,10.07
2018-01-23T03:50:29.142Z,10.06
2018-01-23T03:51:29.625Z,10.06
2018-01-23T03:52:30.075Z,10.06
2018-01-23T03:53:30.551Z,10.06
2018-01-23T03:54:31.018Z,10.07
2018-01-23T03:55:31.488Z,10.07
2018-01-23T03:56:31.953Z,10.07
2018-01-23T03:57:32.427Z,10.08
2018-01-23T03:58:32.901Z,10.08
2018-01-23T03:59:33.364Z,10.05
2018-01-23T04:00:45.923Z,10.06
2018-01-23T04:01:34.300Z,10.08
2018-01-23T04:02:34.773Z,10.07
2018-01-23T04:03:35.237Z,10.07
2018-01-23T04:04:35.711Z,10.07
2018-01-23T04:05:36.177Z,10.07
2018-01-23T04:06:36.645Z,10.08
2018-01-23T04:08:37.584Z,10.03
2018-01-23T04:09:38.055Z,10.04
2018-01-23T04:10:38.521Z,10.04
2018-01-23T04:11:38.995Z,10.05
2018-01-23T04:13:39.930Z,10.05
2018-01-23T04:14:40.400Z,10.06
2018-01-23T04:16:41.339Z,10.06
2018-01-23T04:17:41.806Z,10.06
2018-01-23T04:18:42.275Z,10.07
2018-01-23T04:19:42.746Z,10.07
2018-01-23T04:20:43.212Z,10.07
2018-01-23T04:21:43.680Z,10.07
2018-01-23T04:22:44.151Z,10.06
2018-01-23T04:23:44.620Z,10.05
2018-01-23T04:24:45.088Z,10.05
2018-01-23T04:25:45.556Z,10.07
2018-01-23T04:26:46.031Z,10.05
2018-01-23T04:27:46.497Z,10.06
2018-01-23T04:28:46.965Z,10.06
2018-01-23T04:29:47.435Z,10.06
2018-01-23T04:30:47.905Z,10.05
2018-01-23T04:32:48.842Z,10.04
2018-01-23T04:33:49.311Z,10.03
2018-01-23T04:34:49.777Z,10.05
2018-01-23T04:35:50.252Z,10.04
2018-01-23T04:36:50.719Z,10.04
2018-01-23T04:38:51.656Z,10.05
2018-01-23T04:40:52.796Z,10.06
2018-01-23T04:41:53.061Z,10.04
2018-01-23T04:42:53.534Z,10.04
2018-01-23T04:43:54.003Z,10.02
2018-01-23T04:44:54.473Z,10.01
2018-01-23T04:45:54.941Z,10.00
2018-01-23T04:46:55.406Z,10.02
2018-01-23T04:47:55.880Z,10.00
2018-01-23T04:48:56.347Z,10.00
2018-01-23T04:49:56.816Z,10.00
2018-01-23T04:50:57.287Z,10.01
2018-01-23T04:51:57.957Z,10.02
2018-01-23T04:52:58.223Z,10.04
2018-01-23T04:54:59.162Z,10.01
2018-01-23T04:57:00.100Z,10.01
2018-01-23T04:58:00.569Z,10.01
2018-01-23T04:59:01.040Z,10.02
2018-01-23T05:00:01.509Z,10.00
2018-01-23T05:01:01.972Z,10.03
2018-01-23T05:02:02.445Z,10.01
2018-01-23T05:03:02.913Z,10.01
2018-01-23T05:04:03.385Z,10.00
2018-01-23T05:05:03.851Z,10.00
2018-01-23T05:06:04.321Z,9.99
2018-01-23T05:07:04.790Z,9.99
2018-01-23T05:08:05.255Z,9.99
2018-01-23T05:09:05.728Z,9.99
2018-01-23T05:10:06.400Z,9.97
2018-01-23T05:11:06.666Z,9.96
2018-01-23T05:12:07.144Z,9.94
2018-01-23T05:13:07.604Z,9.94
2018-01-23T05:14:08.074Z,9.94
2018-01-23T05:15:08.537Z,9.94
2018-01-23T05:16:09.012Z,9.94
2018-01-23T05:17:09.480Z,9.93
2018-01-23T05:18:09.952Z,9.93
2018-01-23T05:19:10.418Z,9.93
2018-01-23T05:21:11.351Z,9.94
2018-01-23T05:22:11.825Z,9.92
2018-01-23T05:23:12.297Z,9.94
2018-01-23T05:24:12.764Z,9.92
2018-01-23T05:25:13.232Z,9.93
2018-01-23T05:26:13.700Z,9.91
2018-01-23T05:27:14.172Z,9.93
2018-01-23T05:29:15.107Z,9.92
2018-01-23T05:30:15.578Z,9.91
2018-01-23T05:31:16.048Z,9.92
2018-01-23T05:32:16.512Z,9.91
2018-01-23T05:33:16.983Z,9.89
2018-01-23T05:34:17.453Z,9.90
2018-01-23T05:35:17.922Z,9.88
2018-01-23T05:36:18.390Z,9.89
2018-01-23T05:37:18.860Z,9.90
2018-01-23T05:38:19.328Z,9.91
2018-01-23T05:39:19.801Z,9.90
2018-01-23T05:40:20.262Z,9.90
2018-01-23T05:41:20.735Z,9.90
2018-01-23T05:42:21.204Z,9.90
2018-01-23T05:43:21.674Z,9.89
2018-01-23T05:45:22.611Z,9.87
2018-01-23T05:46:23.082Z,9.88
2018-01-23T05:47:23.545Z,9.89
2018-01-23T05:48:24.019Z,9.89
2018-01-23T05:49:24.487Z,9.90
2018-01-23T05:50:24.956Z,9.89
2018-01-23T05:51:25.625Z,9.90
2018-01-23T05:52:25.895Z,9.91
2018-01-23T05:53:26.364Z,9.90
2018-01-23T05:54:26.831Z,9.92
2018-01-23T05:55:27.308Z,9.91
2018-01-23T05:56:27.771Z,9.89
2018-01-23T05:57:28.242Z,9.88
2018-01-23T05:58:28.707Z,9.89
2018-01-23T05:59:29.179Z,9.88
2018-01-23T06:00:29.646Z,9.89
2018-01-23T06:01:30.110Z,9.88
2018-01-23T06:02:30.584Z,9.87
2018-01-23T06:03:31.054Z,9.87
2018-01-23T06:04:31.525Z,9.86
2018-01-23T06:05:31.991Z,9.86
2018-01-23T06:07:32.929Z,9.84
2018-01-23T06:08:33.445Z,9.85
2018-01-23T06:09:33.862Z,9.86
2018-01-23T06:10:34.338Z,9.86
2018-01-23T06:11:34.809Z,9.84
2018-01-23T06:12:35.269Z,9.83
2018-01-23T06:13:35.744Z,9.83
2018-01-23T06:14:36.214Z,9.81
2018-01-23T06:15:36.683Z,9.79
2018-01-23T06:16:37.152Z,9.80
2018-01-23T06:17:37.612Z,9.79
2018-01-23T06:18:38.089Z,9.79
2018-01-23T06:19:38.551Z,9.79
2018-01-23T06:20:39.026Z,9.79
2018-01-23T06:21:39.493Z,9.80
2018-01-23T06:22:39.957Z,9.78
2018-01-23T06:23:40.628Z,9.77
2018-01-23T06:24:40.897Z,9.77
2018-01-23T06:25:41.367Z,9.75
2018-01-23T06:27:42.504Z,9.73
2018-01-23T06:28:42.776Z,9.74
2018-01-23T06:29:43.241Z,9.72
2018-01-23T06:30:43.712Z,9.71
2018-01-23T06:31:44.180Z,9.70
2018-01-23T06:32:56.027Z,9.68
2018-01-23T06:33:45.117Z,9.69
2018-01-23T06:34:45.580Z,9.69
2018-01-23T06:35:46.056Z,9.68
2018-01-23T06:36:46.524Z,9.68
2018-01-23T06:37:46.994Z,9.68
2018-01-23T06:38:47.457Z,9.67
2018-01-23T06:39:47.930Z,9.67
2018-01-23T06:40:48.400Z,9.70
2018-01-23T06:41:48.868Z,9.71
2018-01-23T06:42:49.335Z,9.70
2018-01-23T06:44:50.274Z,9.70
2018-01-23T06:45:50.746Z,9.69
2018-01-23T06:46:51.210Z,9.71
2018-01-23T06:47:51.680Z,9.70
2018-01-23T06:48:52.148Z,9.71
2018-01-23T06:49:52.611Z,9.71
2018-01-23T06:50:53.085Z,9.72
2018-01-23T06:51:53.554Z,9.70
2018-01-23T06:53:54.487Z,9.71
2018-01-23T06:54:55.007Z,9.68
2018-01-23T06:55:55.432Z,9.67
2018-01-23T06:56:55.900Z,9.67
2018-01-23T06:57:56.366Z,9.67
2018-01-23T06:58:56.834Z,9.67
2018-01-23T06:59:57.308Z,9.69
2018-01-23T07:00:57.772Z,9.69
2018-01-23T07:01:58.243Z,9.67
2018-01-23T07:02:58.708Z,9.66
2018-01-23T07:03:59.181Z,9.67
2018-01-23T07:04:59.643Z,9.67
2018-01-23T07:06:00.324Z,9.65
2018-01-23T07:07:00.584Z,9.64
2018-01-23T07:08:01.052Z,9.65
2018-01-23T07:09:01.522Z,9.64
2018-01-23T07:10:01.992Z,9.63
2018-01-23T07:11:02.463Z,9.64
2018-01-23T07:12:02.932Z,9.63
2018-01-23T07:13:03.599Z,9.63
2018-01-23T07:14:03.861Z,9.64
2018-01-23T07:15:04.335Z,9.66
2018-01-23T07:16:04.802Z,9.64
2018-01-23T07:17:05.265Z,9.64
2018-01-23T07:18:05.765Z,9.65
2018-01-23T07:19:06.208Z,9.64
2018-01-23T07:20:06.677Z,9.63
2018-01-23T07:22:07.615Z,9.63
2018-01-23T07:23:08.082Z,9.66
2018-01-23T07:24:08.550Z,9.66
2018-01-23T07:26:09.488Z,9.66
2018-01-23T07:27:09.959Z,9.65
2018-01-23T07:28:10.425Z,9.65
2018-01-23T07:29:10.894Z,9.63
2018-01-23T07:30:11.362Z,9.63
2018-01-23T07:31:11.832Z,9.64
2018-01-23T07:32:12.296Z,9.64
2018-01-23T07:34:13.237Z,9.64
2018-01-23T07:35:13.704Z,9.64
2018-01-23T07:36:14.171Z,9.64
2018-01-23T07:37:14.643Z,9.68
2018-01-23T07:38:27.101Z,9.68
2018-01-23T07:39:15.579Z,9.69
2018-01-23T07:41:16.517Z,9.68
2018-01-23T07:42:16.989Z,9.70
2018-01-23T07:43:17.458Z,9.69
2018-01-23T07:44:17.926Z,9.70
2018-01-23T07:45:18.396Z,9.70
2018-01-23T07:46:18.861Z,9.68
2018-01-23T07:47:19.328Z,9.68
2018-01-23T07:48:31.127Z,9.68
2018-01-23T07:49:20.267Z,9.67
2018-01-23T07:50:20.932Z,9.68
2018-01-23T07:51:21.198Z,9.66
2018-01-23T07:52:21.672Z,9.68
2018-01-23T07:53:22.192Z,9.68
2018-01-23T07:55:23.073Z,9.70
2018-01-23T07:56:23.550Z,9.69
2018-01-23T07:57:24.014Z,9.70
2018-01-23T07:58:24.487Z,9.70
2018-01-23T07:59:24.953Z,9.71
2018-01-23T08:00:25.422Z,9.72
2018-01-23T08:02:26.356Z,9.75
2018-01-23T08:03:26.829Z,9.74
2018-01-23T08:04:27.301Z,9.76
2018-01-23T08:05:27.765Z,9.75
2018-01-23T08:06:28.435Z,9.73
2018-01-23T08:07:28.701Z,9.73
2018-01-23T08:08:29.171Z,9.72
2018-01-23T08:09:29.639Z,9.72
2018-01-23T08:10:30.450Z,9.72
2018-01-23T08:11:30.576Z,9.71
2018-01-23T08:12:31.044Z,9.70
2018-01-23T08:13:31.516Z,9.71
2018-01-23T08:14:31.978Z,9.70
2018-01-23T08:16:33.129Z,9.68
2018-01-23T08:17:33.391Z,9.67
2018-01-23T08:19:34.364Z,9.64
2018-01-23T08:20:34.794Z,9.64
2018-01-23T08:21:35.264Z,9.63
2018-01-23T08:22:35.732Z,9.63
2018-01-23T08:23:36.200Z,9.61
2018-01-23T08:24:36.670Z,9.62
2018-01-23T08:25:37.131Z,9.63
2018-01-23T08:26:37.608Z,9.61
2018-01-23T08:27:38.079Z,9.60
2018-01-23T08:28:38.543Z,9.58
2018-01-23T08:29:39.017Z,9.59
2018-01-23T08:31:39.951Z,9.61
2018-01-23T08:32:40.412Z,9.59
2018-01-23T08:33:40.886Z,9.59
2018-01-23T08:34:41.353Z,9.60
2018-01-23T08:35:41.822Z,9.60
2018-01-23T08:36:42.490Z,9.61
2018-01-23T08:37:42.760Z,9.61
2018-01-23T08:39:43.698Z,9.61
2018-01-23T08:40:44.165Z,9.62
2018-01-23T08:41:44.634Z,9.61
2018-01-23T08:43:45.566Z,9.63
2018-01-23T08:44:46.040Z,9.63
2018-01-23T08:45:46.509Z,9.62
2018-01-23T08:46:46.977Z,9.61
2018-01-23T08:47:47.443Z,9.61
2018-01-23T08:48:47.916Z,9.62
2018-01-23T08:49:48.384Z,9.63
2018-01-23T08:50:48.850Z,9.63
2018-01-23T08:52:49.988Z,9.61
2018-01-23T08:53:50.257Z,9.60
2018-01-23T08:54:50.729Z,9.62
2018-01-23T08:55:51.194Z,9.64
2018-01-23T08:56:51.662Z,9.63
2018-01-23T08:57:52.132Z,9.65
2018-01-23T08:58:52.599Z,9.64
2018-01-23T08:59:53.061Z,9.64
2018-01-23T09:00:53.537Z,9.66
2018-01-23T09:01:54.005Z,9.65
2018-01-23T09:02:54.476Z,9.67
2018-01-23T09:03:54.960Z,9.67
2018-01-23T09:04:55.414Z,9.66
2018-01-23T09:05:55.880Z,9.66
2018-01-23T09:06:56.346Z,9.67
2018-01-23T09:07:56.815Z,9.67
2018-01-23T09:08:57.282Z,9.65
2018-01-23T09:09:57.752Z,9.65
2018-01-23T09:10:58.220Z,9.66
2018-01-23T09:11:58.690Z,9.67
2018-01-23T09:12:59.157Z,9.66
2018-01-23T09:13:59.830Z,9.66
2018-01-23T09:15:00.093Z,9.68
2018-01-23T09:16:00.563Z,9.67
2018-01-23T09:17:01.033Z,9.65
2018-01-23T09:18:01.502Z,9.67
2018-01-23T09:19:02.177Z,9.69
2018-01-23T09:20:02.436Z,9.69
2018-01-23T09:21:02.906Z,9.67
2018-01-23T09:22:03.376Z,9.68
2018-01-23T09:23:03.846Z,9.68
2018-01-23T09:24:04.313Z,9.71
2018-01-23T09:25:04.831Z,9.71
2018-01-23T09:26:05.256Z,9.68
2018-01-23T09:27:05.715Z,9.70
2018-01-23T09:28:06.183Z,9.70
2018-01-23T09:29:06.653Z,9.71
2018-01-23T09:30:07.121Z,9.71
2018-01-23T09:31:07.591Z,9.71
2018-01-23T09:32:08.054Z,9.71
2018-01-23T09:33:08.527Z,9.71
2018-01-23T09:34:08.997Z,9.71
2018-01-23T09:35:09.463Z,9.70
2018-01-23T09:36:09.933Z,9.70
2018-01-23T09:37:10.401Z,9.68
2018-01-23T09:38:10.871Z,9.70
2018-01-23T09:39:11.338Z,9.71
2018-01-23T09:40:11.806Z,9.72
2018-01-23T09:42:12.744Z,9.77
2018-01-23T09:44:13.680Z,9.73
2018-01-23T09:45:14.145Z,9.72
2018-01-23T09:46:14.618Z,9.75
2018-01-23T09:47:15.086Z,9.74
2018-01-23T09:48:15.557Z,9.76
2018-01-23T09:49:16.020Z,9.76
2018-01-23T09:50:16.496Z,9.78
2018-01-23T09:52:17.428Z,9.78
2018-01-23T09:53:17.898Z,9.78
2018-01-23T09:55:30.217Z,9.78
2018-01-23T09:56:19.304Z,9.80
2018-01-23T09:57:19.978Z,9.81
2018-01-23T09:58:20.244Z,9.85
2018-01-23T09:59:20.709Z,9.87
2018-01-23T10:00:21.380Z,9.89
2018-01-23T10:01:21.649Z,9.88
2018-01-23T10:02:22.116Z,9.89
2018-01-23T10:03:22.586Z,9.87
2018-01-23T10:04:23.049Z,9.88
2018-01-23T10:05:23.521Z,9.89
2018-01-23T10:06:24.193Z,9.89
2018-01-23T10:07:24.457Z,9.90
2018-01-23T10:08:24.923Z,9.91
2018-01-23T10:09:25.398Z,9.92
2018-01-23T10:11:26.334Z,9.93
2018-01-23T10:12:26.803Z,9.91
2018-01-23T10:13:27.272Z,9.92
2018-01-23T10:14:27.741Z,9.92
2018-01-23T10:15:28.205Z,9.92
2018-01-23T10:16:28.676Z,9.93
2018-01-23T10:18:29.617Z,9.95
2018-01-23T10:19:30.083Z,9.95
2018-01-23T10:21:31.022Z,9.92
2018-01-23T10:22:31.492Z,9.94
2018-01-23T10:23:31.959Z,9.92
2018-01-23T10:24:32.465Z,9.94
2018-01-23T10:26:33.366Z,9.95
2018-01-23T10:27:33.834Z,9.97
2018-01-23T10:28:34.304Z,9.97
2018-01-23T10:29:34.774Z,9.98
2018-01-23T10:30:35.247Z,9.99
2018-01-23T10:31:35.710Z,10.00
2018-01-23T10:32:36.183Z,10.01
2018-01-23T10:33:36.646Z,10.01
2018-01-23T10:35:37.586Z,10.01
2018-01-23T10:37:38.519Z,10.03
2018-01-23T10:39:39.461Z,10.06
2018-01-23T10:40:39.930Z,10.06
2018-01-23T10:42:40.870Z,10.05
2018-01-23T10:43:41.336Z,10.05
2018-01-23T10:44:41.800Z,10.04
2018-01-23T10:46:42.743Z,10.06
2018-01-23T10:47:43.216Z,10.07
2018-01-23T10:48:43.677Z,10.08
2018-01-23T10:49:44.150Z,10.09
2018-01-23T10:50:44.829Z,10.10
2018-01-23T10:51:45.089Z,10.10
2018-01-23T10:53:46.026Z,10.11
2018-01-23T10:54:46.495Z,10.12
2018-01-23T10:55:46.961Z,10.13
2018-01-23T10:57:48.108Z,10.16
2018-01-23T10:58:48.371Z,10.16
2018-01-23T10:59:48.836Z,10.16
2018-01-23T11:00:49.309Z,10.17
2018-01-23T11:02:01.316Z,10.17
2018-01-23T11:02:50.248Z,10.16
2018-01-23T11:04:51.184Z,10.18
2018-01-23T11:05:51.654Z,10.19
2018-01-23T11:06:52.121Z,10.20
2018-01-23T11:07:52.592Z,10.21
2018-01-23T11:08:53.061Z,10.22
2018-01-23T11:09:53.531Z,10.22
2018-01-23T11:10:54.000Z,10.23
2018-01-23T11:11:54.468Z,10.23
2018-01-23T11:12:54.938Z,10.25
2018-01-23T11:13:55.609Z,10.25
2018-01-23T11:14:55.871Z,10.26
2018-01-23T11:15:56.343Z,10.26
2018-01-23T11:16:56.814Z,10.27
2018-01-23T11:17:57.283Z,10.29
2018-01-23T11:18:57.753Z,10.29
2018-01-23T11:19:58.217Z,10.30
2018-01-23T11:21:59.160Z,10.33
2018-01-23T11:22:59.635Z,10.36
2018-01-23T11:24:00.107Z,10.39
2018-01-23T11:25:00.566Z,10.40
2018-01-23T11:26:01.037Z,10.42
2018-01-23T11:27:01.507Z,10.44
2018-01-23T11:28:01.976Z,10.46
2018-01-23T11:29:02.449Z,10.49
2018-01-23T11:30:02.913Z,10.50
2018-01-23T11:31:03.386Z,10.52
2018-01-23T11:32:03.854Z,10.55
2018-01-23T11:33:04.322Z,10.58
2018-01-23T11:34:04.787Z,10.60
2018-01-23T11:35:05.261Z,10.64
2018-01-23T11:36:05.731Z,10.67
2018-01-23T11:37:06.202Z,10.69
2018-01-23T11:38:06.665Z,10.72
2018-01-23T11:39:07.139Z,10.76
2018-01-23T11:40:07.608Z,10.78
2018-01-23T11:41:08.076Z,10.78
2018-01-23T11:42:08.547Z,10.81
2018-01-23T11:43:09.017Z,10.84
2018-01-23T11:44:09.486Z,10.84
2018-01-23T11:45:09.951Z,10.85
2018-01-23T11:46:10.429Z,10.87
2018-01-23T11:48:11.369Z,10.89
2018-01-23T11:49:11.836Z,10.93
2018-01-23T11:50:12.304Z,10.95
2018-01-23T11:51:12.774Z,10.95
2018-01-23T11:52:13.238Z,10.95
2018-01-23T11:53:13.713Z,10.97
2018-01-23T11:54:14.181Z,10.98
2018-01-23T11:55:14.653Z,10.99
2018-01-23T11:56:15.121Z,11.01
2018-01-23T11:57:15.592Z,11.02
2018-01-23T11:58:16.062Z,11.02
2018-01-23T11:59:16.532Z,11.04
2018-01-23T12:00:17.001Z,11.06
2018-01-23T12:01:17.467Z,11.08
2018-01-23T12:04:18.880Z,11.10
2018-01-23T12:05:19.354Z,11.12
2018-01-23T12:06:19.821Z,11.14
2018-01-23T12:08:20.756Z,11.16
2018-01-23T12:09:21.233Z,11.15
2018-01-23T12:11:22.171Z,11.18
2018-01-23T12:12:22.637Z,11.19
2018-01-23T12:13:35.349Z,11.19
2018-01-23T12:14:23.581Z,11.21
2018-01-23T12:15:24.050Z,11.22
2018-01-23T12:16:24.521Z,11.23
2018-01-23T12:17:24.990Z,11.24
2018-01-23T12:18:37.353Z,11.24
2018-01-23T12:19:25.927Z,11.24
2018-01-23T12:21:26.869Z,11.25
2018-01-23T12:22:27.343Z,11.26
2018-01-23T12:23:27.807Z,11.28
2018-01-23T12:24:28.282Z,11.30
2018-01-23T12:25:28.751Z,11.29
2018-01-23T12:26:29.224Z,11.28
2018-01-23T12:27:29.687Z,11.28
2018-01-23T12:28:30.163Z,11.30
2018-01-23T12:29:30.836Z,11.30
2018-01-23T12:30:31.107Z,11.31
2018-01-23T12:31:31.603Z,11.31
2018-01-23T12:32:32.036Z,11.32
2018-01-23T12:33:44.346Z,11.34
2018-01-23T12:34:32.983Z,11.33
2018-01-23T12:35:33.495Z,11.32
2018-01-23T12:36:33.923Z,11.35
2018-01-23T12:37:34.395Z,11.34
2018-01-23T12:38:34.866Z,11.34
2018-01-23T12:39:35.336Z,11.34
2018-01-23T12:40:35.806Z,11.33
2018-01-23T12:41:36.277Z,11.35
2018-01-23T12:42:36.749Z,11.34
2018-01-23T12:43:37.215Z,11.33
2018-01-23T12:44:37.684Z,11.33
2018-01-23T12:45:38.151Z,11.33
2018-01-23T12:46:38.622Z,11.35
2018-01-23T12:47:39.099Z,11.36
2018-01-23T12:48:39.567Z,11.38
2018-01-23T12:49:40.039Z,11.39
2018-01-23T12:50:40.502Z,11.40
2018-01-23T12:51:40.978Z,11.38
2018-01-23T12:52:41.448Z,11.38
2018-01-23T12:53:41.920Z,11.37
2018-01-23T12:54:42.383Z,11.37
2018-01-23T12:55:42.853Z,11.39
2018-01-23T12:56:43.332Z,11.40
2018-01-23T12:57:43.793Z,11.39
2018-01-23T12:58:44.268Z,11.40
2018-01-23T13:00:45.210Z,11.39
2018-01-23T13:01:45.680Z,11.40
2018-01-23T13:02:46.152Z,11.40
2018-01-23T13:03:46.624Z,11.40
2018-01-23T13:04:47.103Z,11.40
2018-01-23T13:05:47.560Z,11.41
2018-01-23T13:06:48.033Z,11.41
2018-01-23T13:07:48.507Z,11.42
2018-01-23T13:08:48.973Z,11.43
2018-01-23T13:09:49.445Z,11.43
2018-01-23T13:10:49.914Z,11.42
2018-01-23T13:11:50.388Z,11.42
2018-01-23T13:13:51.321Z,11.44
2018-01-23T13:14:51.796Z,11.43
2018-01-23T13:15:52.267Z,11.43
2018-01-23T13:16:52.938Z,11.42
2018-01-23T13:17:53.202Z,11.42
2018-01-23T13:18:53.678Z,11.43
2018-01-23T13:19:54.143Z,11.43
2018-01-23T13:21:55.291Z,11.42
2018-01-23T13:22:55.559Z,11.43
2018-01-23T13:23:56.271Z,11.42
2018-01-23T13:25:56.974Z,11.43
2018-01-23T13:26:57.443Z,11.43
2018-01-23T13:27:57.914Z,11.44
2018-01-23T13:29:58.852Z,11.46
2018-01-23T13:30:59.318Z,11.45
2018-01-23T13:31:59.795Z,11.47
2018-01-23T13:33:00.467Z,11.47
2018-01-23T13:34:00.734Z,11.47
2018-01-23T13:35:01.206Z,11.47
2018-01-23T13:36:01.678Z,11.47
2018-01-23T13:37:02.147Z,11.47
2018-01-23T13:38:02.618Z,11.49
2018-01-23T13:39:03.086Z,11.49
2018-01-23T13:41:04.028Z,11.47
2018-01-23T13:42:04.499Z,11.47
2018-01-23T13:43:04.969Z,11.47
2018-01-23T13:44:05.443Z,11.47
2018-01-23T13:45:05.912Z,11.46
2018-01-23T13:46:06.382Z,11.45
2018-01-23T13:47:06.852Z,11.44
2018-01-23T13:49:07.795Z,11.45
2018-01-23T13:50:08.260Z,11.44
2018-01-23T13:51:08.740Z,11.45
2018-01-23T13:52:09.205Z,11.44
2018-01-23T13:53:09.678Z,11.45
2018-01-23T13:54:10.149Z,11.45
2018-01-23T13:55:10.614Z,11.44
2018-01-23T13:57:11.559Z,11.43
2018-01-23T13:58:12.031Z,11.42
2018-01-23T13:59:12.495Z,11.42
2018-01-23T14:01:13.440Z,11.42
2018-01-23T14:02:13.911Z,11.41
2018-01-23T14:03:14.583Z,11.40
2018-01-23T14:04:14.853Z,11.41
2018-01-23T14:05:15.322Z,11.42
2018-01-23T14:06:15.788Z,11.41
2018-01-23T14:07:16.264Z,11.41
2018-01-23T14:08:16.735Z,11.41
2018-01-23T14:09:17.205Z,11.41
2018-01-23T14:10:17.678Z,11.40
2018-01-23T14:11:18.147Z,11.41
2018-01-23T14:12:18.617Z,11.38
2018-01-23T14:13:19.087Z,11.37
2018-01-23T14:14:19.554Z,11.37
2018-01-23T14:15:20.029Z,11.36
2018-01-23T14:16:20.499Z,11.38
2018-01-23T14:17:21.000Z,11.38
2018-01-23T14:18:21.440Z,11.37
2018-01-23T14:19:21.905Z,11.36
2018-01-23T14:21:22.854Z,11.32
2018-01-23T14:22:23.324Z,11.31
2018-01-23T14:23:23.793Z,11.27
2018-01-23T14:24:24.469Z,11.27
2018-01-23T14:25:24.735Z,11.27
2018-01-23T14:26:25.203Z,11.25
2018-01-23T14:27:25.675Z,11.26